createdAt,value
2022-09-18T00:01:34.677Z,1.40
2022-09-18T00:04:04.773Z,1.42
2022-09-18T00:06:34.486Z,1.50
2022-09-18T00:09:03.658Z,1.40
2022-09-18T00:11:36.453Z,1.63
2022-09-18T00:14:07.247Z,1.48
2022-09-18T00:16:34.725Z,1.33
2022-09-18T00:19:03.258Z,2.17
2022-09-18T00:21:32.088Z,1.50
2022-09-18T00:24:02.628Z,1.77
2022-09-18T00:26:30.910Z,1.70
2022-09-18T00:28:59.146Z,1.60
2022-09-18T00:31:30.212Z,1.80
2022-09-18T00:33:59.586Z,1.60
2022-09-18T00:36:27.824Z,1.60
2022-09-18T00:38:59.614Z,1.33
2022-09-18T00:41:30.595Z,1.55
2022-09-18T00:44:35.214Z,1.30
2022-09-18T00:47:08.268Z,1.70
2022-09-18T00:49:38.371Z,1.80
2022-09-18T00:52:05.860Z,1.90
2022-09-18T00:54:43.311Z,1.50
2022-09-18T00:57:18.882Z,1.27
2022-09-18T00:59:49.948Z,1.55
2022-09-18T01:02:17.659Z,2.10
2022-09-18T01:04:45.128Z,1.95
2022-09-18T01:07:29.544Z,1.73
2022-09-18T01:10:15.165Z,2.50
2022-09-18T01:12:58.794Z,2.53
2022-09-18T01:15:33.849Z,1.95
2022-09-18T01:18:09.488Z,2.17
2022-09-18T01:20:57.666Z,2.28
2022-09-18T01:23:51.276Z,2.03
2022-09-18T01:26:33.496Z,1.77
2022-09-18T01:29:00.796Z,2.00
2022-09-18T01:31:40.210Z,2.47
2022-09-18T01:34:19.669Z,1.90
2022-09-18T01:36:52.761Z,2.47
2022-09-18T01:39:33.017Z,2.88
2022-09-18T01:42:03.649Z,2.25
2022-09-18T01:44:34.080Z,1.73
2022-09-18T01:47:09.998Z,2.22
2022-09-18T01:49:43.587Z,1.73
2022-09-18T01:52:22.568Z,2.22
2022-09-18T01:54:53.544Z,2.28
2022-09-18T01:57:28.347Z,2.50
2022-09-18T02:00:23.207Z,2.00
2022-09-18T02:03:06.636Z,2.28
2022-09-18T02:05:43.751Z,2.47
2022-09-18T02:08:34.246Z,2.15
2022-09-18T02:11:08.228Z,2.30
2022-09-18T02:14:12.579Z,1.83
2022-09-18T02:17:22.251Z,2.20
2022-09-18T02:20:00.635Z,2.42
2022-09-18T02:22:33.008Z,1.73
2022-09-18T02:25:04.699Z,2.30
2022-09-18T02:27:34.474Z,1.90
2022-09-18T02:30:04.938Z,2.03
2022-09-18T02:32:35.539Z,2.25
2022-09-18T02:35:08.010Z,1.92
2022-09-18T02:38:05.592Z,3.13
2022-09-18T02:40:57.194Z,1.80
2022-09-18T02:43:35.750Z,1.98
2022-09-18T02:46:44.586Z,1.95
2022-09-18T02:49:33.125Z,2.00
2022-09-18T02:52:15.322Z,2.05
2022-09-18T02:54:54.867Z,1.50
2022-09-18T02:57:54.448Z,1.40
2022-09-18T03:00:22.540Z,1.58
2022-09-18T03:02:51.497Z,1.80
2022-09-18T03:05:45.181Z,1.70
2022-09-18T03:08:12.749Z,1.95
2022-09-18T03:10:42.702Z,1.45
2022-09-18T03:13:10.665Z,1.90
2022-09-18T03:15:37.893Z,1.40
2022-09-18T03:18:05.160Z,1.73
2022-09-18T03:20:32.585Z,1.55
2022-09-18T03:23:03.843Z,1.40
2022-09-18T03:25:32.299Z,1.80
2022-09-18T03:28:03.812Z,1.80
2022-09-18T03:30:37.446Z,1.52
2022-09-18T03:33:06.867Z,1.50
2022-09-18T03:35:34.543Z,2.08
2022-09-18T03:38:02.122Z,1.45
2022-09-18T03:40:31.495Z,1.60
2022-09-18T03:43:03.192Z,1.60
2022-09-18T03:45:30.929Z,1.75
2022-09-18T03:48:02.488Z,1.17
2022-09-18T03:50:30.171Z,1.20
2022-09-18T03:52:57.502Z,1.50
2022-09-18T03:55:50.066Z,1.50
2022-09-18T03:58:23.258Z,1.30
2022-09-18T04:01:09.936Z,1.45
2022-09-18T04:03:57.449Z,1.30
2022-09-18T04:06:47.451Z,1.27
2022-09-18T04:09:33.165Z,1.70
2022-09-18T04:12:01.072Z,1.63
2022-09-18T04:14:30.209Z,1.70
2022-09-18T04:16:59.323Z,2.13
2022-09-18T04:19:26.555Z,1.85
2022-09-18T04:21:54.305Z,1.75
2022-09-18T04:24:22.108Z,1.45
2022-09-18T04:26:50.328Z,2.15
2022-09-18T04:29:23.705Z,2.08
2022-09-18T04:31:57.958Z,1.85
2022-09-18T04:34:26.203Z,1.48
2022-09-18T04:36:54.082Z,1.73
2022-09-18T04:39:21.712Z,1.58
2022-09-18T04:41:51.844Z,1.60
2022-09-18T04:44:20.246Z,1.80
2022-09-18T04:46:47.901Z,1.70
2022-09-18T04:49:16.921Z,1.65
2022-09-18T04:51:44.250Z,1.80
2022-09-18T04:54:15.335Z,1.73
2022-09-18T04:56:44.289Z,1.73
2022-09-18T04:59:12.774Z,1.63
2022-09-18T05:01:44.400Z,1.63
2022-09-18T05:04:13.668Z,1.92
2022-09-18T05:07:01.752Z,1.95
2022-09-18T05:09:29.105Z,1.60
2022-09-18T05:11:56.294Z,1.98
2022-09-18T05:14:24.774Z,1.80
2022-09-18T05:17:00.273Z,1.40
2022-09-18T05:19:35.268Z,1.58
2022-09-18T05:22:07.508Z,1.43
2022-09-18T05:24:39.660Z,1.65
2022-09-18T05:27:07.976Z,2.65
2022-09-18T05:29:35.856Z,1.45
2022-09-18T05:32:13.730Z,1.67
2022-09-18T05:34:44.531Z,1.90
2022-09-18T05:37:15.308Z,1.30
2022-09-18T05:39:50.612Z,1.48
2022-09-18T05:42:17.693Z,1.70
2022-09-18T05:44:44.979Z,1.73
2022-09-18T05:47:22.298Z,1.63
2022-09-18T05:49:49.676Z,1.20
2022-09-18T05:52:17.045Z,1.55
2022-09-18T05:54:44.876Z,1.50
2022-09-18T05:57:12.029Z,1.52
2022-09-18T05:59:39.337Z,1.35
2022-09-18T06:02:06.497Z,1.27
2022-09-18T06:05:00.403Z,1.10
2022-09-18T06:07:28.102Z,1.45
2022-09-18T06:09:55.138Z,1.23
2022-09-18T06:12:23.992Z,1.90
2022-09-18T06:14:51.782Z,1.42
2022-09-18T06:17:18.974Z,1.35
2022-09-18T06:19:47.633Z,1.35
2022-09-18T06:22:14.886Z,1.20
2022-09-18T06:24:43.607Z,1.02
2022-09-18T06:27:15.322Z,1.27
2022-09-18T06:29:43.592Z,1.30
2022-09-18T06:32:14.645Z,1.33
2022-09-18T06:34:42.824Z,1.30
2022-09-18T06:37:14.005Z,1.10
2022-09-18T06:39:44.323Z,1.08
2022-09-18T06:42:31.701Z,1.20
2022-09-18T06:45:21.404Z,1.02
2022-09-18T06:47:55.526Z,1.30
2022-09-18T06:50:25.489Z,1.20
2022-09-18T06:52:52.886Z,1.08
2022-09-18T06:55:20.817Z,0.80
2022-09-18T06:57:58.608Z,1.20
2022-09-18T07:00:27.668Z,0.95
2022-09-18T07:02:59.377Z,1.00
2022-09-18T07:05:49.678Z,1.05
2022-09-18T07:08:32.728Z,1.27
2022-09-18T07:11:13.028Z,1.10
2022-09-18T07:13:41.374Z,1.20
2022-09-18T07:16:11.618Z,1.15
2022-09-18T07:18:39.325Z,1.27
2022-09-18T07:21:14.111Z,1.60
2022-09-18T07:23:43.818Z,1.20
2022-09-18T07:26:12.197Z,1.10
2022-09-18T07:28:42.397Z,1.33
2022-09-18T07:31:17.223Z,1.40
2022-09-18T07:33:47.134Z,1.88
2022-09-18T07:36:18.079Z,1.73
2022-09-18T07:38:56.726Z,1.92
2022-09-18T07:41:30.688Z,1.60
2022-09-18T07:43:58.399Z,1.30
2022-09-18T07:46:25.990Z,1.77
2022-09-18T07:48:57.586Z,2.10
2022-09-18T07:51:29.309Z,1.45
2022-09-18T07:53:59.127Z,1.30
2022-09-18T07:56:47.027Z,1.55
2022-09-18T07:59:18.666Z,1.42
2022-09-18T08:01:56.150Z,1.90
2022-09-18T08:04:26.365Z,2.55
2022-09-18T08:07:12.343Z,1.75
2022-09-18T08:09:57.115Z,1.23
2022-09-18T08:12:47.566Z,2.50
2022-09-18T08:15:44.410Z,2.17
2022-09-18T08:18:44.029Z,1.50
2022-09-18T08:21:32.170Z,1.63
2022-09-18T08:24:05.975Z,1.67
2022-09-18T08:26:39.076Z,1.52
2022-09-18T08:29:09.494Z,1.40
2022-09-18T08:31:45.372Z,1.20
2022-09-18T08:34:14.754Z,1.60
2022-09-18T08:36:45.735Z,1.20
2022-09-18T08:39:27.525Z,1.63
2022-09-18T08:42:39.479Z,1.60
2022-09-18T08:45:41.478Z,1.60
2022-09-18T08:48:25.637Z,2.75
2022-09-18T08:51:16.827Z,2.50
2022-09-18T08:53:56.508Z,1.48
2022-09-18T08:56:57.610Z,1.83
2022-09-18T08:59:56.999Z,1.55
2022-09-18T09:02:39.123Z,1.95
2022-09-18T09:05:11.390Z,1.92
2022-09-18T09:08:10.969Z,1.50
2022-09-18T09:10:43.845Z,1.77
2022-09-18T09:13:16.966Z,1.98
2022-09-18T09:16:03.794Z,2.35
2022-09-18T09:18:51.417Z,2.47
2022-09-18T09:21:25.228Z,1.73
2022-09-18T09:24:21.295Z,1.60
2022-09-18T09:27:19.439Z,1.40
2022-09-18T09:30:06.529Z,1.67
2022-09-18T09:33:08.035Z,1.90
2022-09-18T09:35:46.817Z,1.77
2022-09-18T09:38:47.513Z,1.83
2022-09-18T09:44:22.678Z,2.72
2022-09-18T09:47:00.658Z,2.45
2022-09-18T09:49:39.300Z,2.85
2022-09-18T09:52:22.020Z,2.25
2022-09-18T09:55:13.078Z,1.70
2022-09-18T09:58:08.452Z,1.70
2022-09-18T10:01:06.171Z,2.25
2022-09-18T10:03:49.829Z,2.65
2022-09-18T10:06:39.687Z,1.75
2022-09-18T10:09:10.073Z,1.33
2022-09-18T10:11:43.767Z,1.55
2022-09-18T10:14:24.464Z,1.27
2022-09-18T10:16:56.384Z,3.40
2022-09-18T10:19:38.457Z,3.50
2022-09-18T10:22:09.087Z,2.37
2022-09-18T10:24:55.017Z,1.77
2022-09-18T10:27:24.355Z,1.90
2022-09-18T10:29:55.178Z,1.70
2022-09-18T10:32:41.870Z,1.95
2022-09-18T10:35:37.142Z,1.52
2022-09-18T10:38:07.761Z,1.52
2022-09-18T10:43:18.652Z,1.73
2022-09-18T10:45:56.373Z,1.90
2022-09-18T10:48:29.693Z,1.63
2022-09-18T10:51:00.947Z,1.52
2022-09-18T10:53:43.994Z,0.98
2022-09-18T10:56:22.123Z,1.52
2022-09-18T10:58:53.174Z,1.60
2022-09-18T11:01:24.580Z,2.67
2022-09-18T11:04:02.596Z,1.70
2022-09-18T11:06:37.743Z,2.42
2022-09-18T11:09:21.613Z,2.53
2022-09-18T11:11:51.716Z,2.25
2022-09-18T11:14:33.371Z,1.17
2022-09-18T11:17:25.705Z,2.25
2022-09-18T11:19:56.800Z,1.23
2022-09-18T11:22:43.053Z,2.25
2022-09-18T11:25:29.094Z,1.45
2022-09-18T11:28:31.767Z,2.13
2022-09-18T11:31:09.191Z,1.23
2022-09-18T11:33:49.917Z,2.15
2022-09-18T11:36:31.998Z,2.10
2022-09-18T11:39:02.419Z,0.90
2022-09-18T11:41:44.393Z,1.50
2022-09-18T11:44:33.393Z,1.42
2022-09-18T11:47:26.050Z,1.30
2022-09-18T11:50:19.227Z,1.88
2022-09-18T11:53:13.297Z,1.65
2022-09-18T11:56:15.691Z,1.20
2022-09-18T11:59:03.117Z,1.20
2022-09-18T12:01:42.728Z,1.08
2022-09-18T12:04:13.127Z,1.45
2022-09-18T12:06:41.821Z,1.13
2022-09-18T12:09:25.160Z,1.00
2022-09-18T12:12:03.168Z,1.40
2022-09-18T12:15:03.601Z,1.02
2022-09-18T12:17:33.988Z,1.35
2022-09-18T12:20:11.416Z,1.23
2022-09-18T12:22:56.880Z,1.00
2022-09-18T12:25:39.257Z,1.20
2022-09-18T12:28:34.672Z,1.40
2022-09-18T12:31:06.578Z,1.30
2022-09-18T12:33:45.161Z,1.40
2022-09-18T12:36:38.148Z,1.10
2022-09-18T12:39:36.148Z,1.40
2022-09-18T12:43:00.230Z,0.95
2022-09-18T12:45:37.492Z,1.38
2022-09-18T12:48:37.168Z,1.33
2022-09-18T12:51:08.799Z,1.20
2022-09-18T12:54:07.957Z,1.35
2022-09-18T12:56:47.014Z,1.63
2022-09-18T12:59:29.519Z,1.40
2022-09-18T13:02:15.487Z,1.52
2022-09-18T13:04:54.780Z,1.40
2022-09-18T13:07:40.807Z,1.25
2022-09-18T13:10:15.265Z,1.53
2022-09-18T13:13:08.429Z,1.52
2022-09-18T13:15:49.554Z,1.27
2022-09-18T13:18:52.906Z,1.52
2022-09-18T13:21:32.643Z,1.60
2022-09-18T13:24:01.329Z,1.52
2022-09-18T13:26:32.461Z,1.38
2022-09-18T13:28:59.704Z,1.35
2022-09-18T13:31:33.889Z,1.50
2022-09-18T13:34:14.482Z,1.83
2022-09-18T13:36:45.378Z,1.60
2022-09-18T13:39:28.163Z,1.33
2022-09-18T13:41:57.755Z,1.93
2022-09-18T13:44:51.367Z,1.77
2022-09-18T13:49:54.203Z,1.55
2022-09-18T13:52:33.975Z,1.92
2022-09-18T13:55:13.435Z,1.48
2022-09-18T13:57:45.373Z,1.40
2022-09-18T14:00:22.089Z,1.33
2022-09-18T14:03:12.395Z,1.15
2022-09-18T14:05:41.660Z,1.13
2022-09-18T14:08:37.866Z,1.55
2022-09-18T14:11:16.006Z,1.58
2022-09-18T14:13:54.558Z,1.60
2022-09-18T14:16:23.315Z,1.40
2022-09-18T14:18:50.457Z,1.20
2022-09-18T14:21:17.851Z,1.52
2022-09-18T14:23:46.369Z,1.60
2022-09-18T14:26:28.814Z,1.50
2022-09-18T14:29:16.948Z,1.42
2022-09-18T14:31:54.283Z,1.20
2022-09-18T14:34:39.687Z,1.20
2022-09-18T14:37:19.155Z,1.58
2022-09-18T14:39:49.348Z,1.70
2022-09-18T14:42:36.493Z,1.42
2022-09-18T14:45:21.199Z,1.58
2022-09-18T14:47:50.999Z,1.40
2022-09-18T14:50:27.540Z,1.38
2022-09-18T14:52:55.819Z,1.55
2022-09-18T14:55:29.758Z,2.45
2022-09-18T14:58:07.732Z,1.75
2022-09-18T15:00:38.799Z,1.13
2022-09-18T15:03:17.116Z,1.30
2022-09-18T15:05:47.913Z,1.10
2022-09-18T15:08:26.512Z,2.10
2022-09-18T15:10:58.442Z,1.65
2022-09-18T15:13:26.616Z,1.40
2022-09-18T15:16:04.541Z,1.65
2022-09-18T15:18:40.963Z,1.42
2022-09-18T15:21:45.433Z,1.60
2022-09-18T15:24:20.165Z,1.63
2022-09-18T15:26:56.239Z,1.75
2022-09-18T15:29:46.681Z,1.83
2022-09-18T15:32:25.247Z,1.83
2022-09-18T15:34:54.333Z,1.35
2022-09-18T15:37:25.550Z,1.20
2022-09-18T15:40:09.917Z,2.08
2022-09-18T15:42:41.471Z,1.83
2022-09-18T15:45:24.373Z,1.60
2022-09-18T15:47:52.744Z,1.63
2022-09-18T15:50:19.994Z,1.98
2022-09-18T15:53:12.246Z,2.53
2022-09-18T15:56:01.764Z,1.48
2022-09-18T15:58:34.875Z,1.50
2022-09-18T16:01:05.377Z,1.80
2022-09-18T16:03:33.839Z,1.75
2022-09-18T16:06:08.982Z,1.70
2022-09-18T16:08:38.890Z,1.80
2022-09-18T16:11:07.052Z,1.55
2022-09-18T16:13:39.423Z,1.45
2022-09-18T16:16:13.321Z,1.33
2022-09-18T16:19:13.636Z,1.75
2022-09-18T16:21:47.563Z,1.70
2022-09-18T16:24:31.813Z,2.03
2022-09-18T16:27:07.761Z,2.10
2022-09-18T16:29:35.354Z,1.88
2022-09-18T16:32:03.040Z,2.10
2022-09-18T16:34:30.467Z,1.55
2022-09-18T16:36:58.666Z,1.25
2022-09-18T16:39:27.326Z,1.85
2022-09-18T16:41:54.791Z,1.50
2022-09-18T16:44:25.531Z,1.38
2022-09-18T16:46:59.442Z,1.48
2022-09-18T16:49:32.752Z,1.60
2022-09-18T16:54:35.122Z,1.60
2022-09-18T16:57:10.388Z,1.65
2022-09-18T16:59:41.428Z,1.58
2022-09-18T17:02:10.849Z,1.73
2022-09-18T17:04:39.014Z,1.50
2022-09-18T17:07:06.742Z,1.88
2022-09-18T17:09:35.682Z,1.77
2022-09-18T17:12:03.412Z,1.98
2022-09-18T17:14:33.562Z,1.83
2022-09-18T17:17:01.057Z,2.08
2022-09-18T17:19:28.262Z,1.90
2022-09-18T17:21:57.911Z,2.00
2022-09-18T17:24:27.821Z,1.55
2022-09-18T17:26:55.135Z,1.73
2022-09-18T17:29:22.599Z,1.38
2022-09-18T17:31:50.104Z,1.40
2022-09-18T17:34:22.235Z,2.50
2022-09-18T17:36:49.498Z,2.88
2022-09-18T17:39:17.307Z,2.17
2022-09-18T17:41:46.309Z,2.30
2022-09-18T17:44:15.795Z,2.15
2022-09-18T17:46:43.334Z,1.92
2022-09-18T17:49:10.877Z,1.73
2022-09-18T17:51:38.743Z,1.95
2022-09-18T17:54:08.574Z,2.10
2022-09-18T17:56:35.915Z,3.20
2022-09-18T17:59:09.817Z,1.73
2022-09-18T18:01:47.182Z,1.88
2022-09-18T18:04:18.725Z,1.60
2022-09-18T18:07:02.391Z,1.90
2022-09-18T18:12:00.534Z,2.90
2022-09-18T18:14:31.012Z,2.85
2022-09-18T18:17:01.329Z,2.13
2022-09-18T18:19:28.998Z,2.42
2022-09-18T18:21:59.401Z,2.40
2022-09-18T18:24:30.176Z,2.22
2022-09-18T18:27:00.381Z,2.20
2022-09-18T18:29:29.472Z,1.80
2022-09-18T18:31:57.763Z,1.95
2022-09-18T18:34:27.074Z,2.25
2022-09-18T18:36:55.370Z,1.75
2022-09-18T18:39:22.681Z,2.08
2022-09-18T18:41:52.050Z,2.33
2022-09-18T18:44:19.963Z,3.20
2022-09-18T18:46:48.431Z,2.85
2022-09-18T18:49:24.507Z,2.38
2022-09-18T18:51:55.229Z,2.60
2022-09-18T18:54:35.510Z,2.33
2022-09-18T18:57:14.796Z,1.88
2022-09-18T19:02:17.664Z,2.85
2022-09-18T19:04:45.599Z,2.40
2022-09-18T19:07:14.464Z,3.05
2022-09-18T19:09:43.214Z,3.53
2022-09-18T19:12:13.387Z,2.70
2022-09-18T19:14:44.031Z,2.67
2022-09-18T19:17:15.667Z,2.55
2022-09-18T19:19:43.637Z,2.67
2022-09-18T19:22:20.086Z,3.45
2022-09-18T19:24:50.282Z,2.40
2022-09-18T19:27:30.155Z,2.55
2022-09-18T19:29:58.122Z,3.00
2022-09-18T19:32:37.306Z,2.55
2022-09-18T19:35:07.004Z,2.92
2022-09-18T19:37:34.156Z,4.13
2022-09-18T19:40:04.111Z,4.03
2022-09-18T19:42:37.032Z,3.95
2022-09-18T19:45:07.688Z,3.47
2022-09-18T19:47:49.369Z,3.13
2022-09-18T19:53:36.123Z,2.35
2022-09-18T19:56:15.171Z,4.05
2022-09-18T19:58:55.152Z,2.30
2022-09-18T20:01:22.368Z,1.92
2022-09-18T20:03:53.551Z,2.53
2022-09-18T20:06:21.617Z,2.58
2022-09-18T20:08:58.865Z,3.22
2022-09-18T20:11:26.262Z,4.43
2022-09-18T20:13:53.973Z,3.05
2022-09-18T20:16:26.050Z,3.17
2022-09-18T20:18:57.486Z,3.58
2022-09-18T20:21:24.770Z,2.60
2022-09-18T20:23:58.794Z,2.70
2022-09-18T20:26:29.253Z,2.10
2022-09-18T20:28:56.517Z,2.40
2022-09-18T20:31:24.661Z,2.30
2022-09-18T20:34:00.401Z,2.42
2022-09-18T20:36:31.170Z,2.50
2022-09-18T20:39:01.378Z,1.90
2022-09-18T20:41:30.671Z,1.92
2022-09-18T20:44:03.897Z,1.90
2022-09-18T20:46:36.343Z,2.17
2022-09-18T20:49:08.091Z,2.85
2022-09-18T20:51:36.408Z,2.35
2022-09-18T20:54:07.092Z,2.28
2022-09-18T20:56:42.189Z,2.10
2022-09-18T20:59:16.197Z,1.77
2022-09-18T21:01:45.029Z,2.22
2022-09-18T21:04:17.572Z,1.58
2022-09-18T21:06:47.993Z,1.87
2022-09-18T21:09:15.797Z,2.20
2022-09-18T21:11:44.890Z,1.73
2022-09-18T21:14:18.265Z,1.95
2022-09-18T21:19:15.009Z,1.88
2022-09-18T21:21:42.130Z,2.42
2022-09-18T21:24:10.296Z,1.88
2022-09-18T21:26:49.047Z,2.35
2022-09-18T21:29:18.039Z,2.05
2022-09-18T21:31:46.752Z,1.73
2022-09-18T21:34:15.485Z,1.90
2022-09-18T21:36:45.831Z,1.60
2022-09-18T21:39:14.546Z,1.92
2022-09-18T21:41:46.648Z,1.70
2022-09-18T21:44:16.402Z,2.00
2022-09-18T21:46:47.623Z,1.67
2022-09-18T21:49:16.492Z,2.33
2022-09-18T21:51:43.970Z,1.88
2022-09-18T21:54:19.970Z,1.92
2022-09-18T21:56:56.367Z,2.38
2022-09-18T21:59:28.129Z,2.20
2022-09-18T22:02:05.243Z,2.55
2022-09-18T22:04:33.148Z,2.50
2022-09-18T22:07:01.933Z,1.75
2022-09-18T22:09:39.063Z,2.00
2022-09-18T22:12:08.116Z,2.00
2022-09-18T22:14:38.373Z,1.85
2022-09-18T22:17:08.154Z,1.80
2022-09-18T22:19:39.253Z,2.13
2022-09-18T22:22:08.591Z,1.98
2022-09-18T22:24:39.489Z,1.75
2022-09-18T22:27:15.941Z,2.30
2022-09-18T22:29:43.992Z,2.35
2022-09-18T22:32:11.127Z,2.13
2022-09-18T22:34:41.848Z,1.80
2022-09-18T22:37:15.531Z,2.33
2022-09-18T22:39:42.742Z,2.08
2022-09-18T22:42:09.902Z,1.75
2022-09-18T22:44:38.731Z,2.20
2022-09-18T22:47:06.553Z,2.38
2022-09-18T22:49:33.924Z,3.10
2022-09-18T22:52:01.549Z,2.90
2022-09-18T22:54:29.145Z,2.17
2022-09-18T22:56:59.125Z,2.55
2022-09-18T22:59:28.473Z,2.35
2022-09-18T23:02:03.370Z,2.25
2022-09-18T23:04:36.099Z,3.10
2022-09-18T23:07:04.161Z,2.65
2022-09-18T23:09:31.564Z,3.38
2022-09-18T23:11:59.141Z,2.20
2022-09-18T23:14:28.992Z,2.35
2022-09-18T23:16:57.672Z,2.63
2022-09-18T23:19:27.911Z,2.08
2022-09-18T23:21:55.725Z,2.42
2022-09-18T23:24:24.250Z,2.35
2022-09-18T23:26:58.839Z,2.63
2022-09-18T23:29:27.987Z,2.40
2022-09-18T23:31:58.548Z,2.70
2022-09-18T23:34:29.705Z,2.30
2022-09-18T23:36:58.905Z,2.63
2022-09-18T23:39:34.104Z,1.92
2022-09-18T23:42:03.035Z,2.15
2022-09-18T23:44:31.642Z,2.67
2022-09-18T23:46:59.647Z,2.28
2022-09-18T23:49:28.104Z,1.83
2022-09-18T23:51:55.794Z,2.65
2022-09-18T23:54:29.403Z,2.50
2022-09-18T23:56:56.920Z,2.28
2022-09-18T23:59:33.728Z,3.13
